Timeline UpdatesTrip UpdatesNews PostsPvt PostsTravel TipsAdmin PostsConv PostsFollowed PostsChat RequestsBlog PostsPNR Posts

Disclaimer
Search
 
 
Wed Jul 30, 2014 06:28:37 ISTHomeTrainsΣChainsAtlasPNRForumGalleryNewsFAQTripsMembersLoginFeedback
No Recent News for this Train
Other Trains in the News **new
Latest...
.
Tue Jan 15, 2013 (02:24AM)
⇐ Return Journey: Train# 54251

54252/Saharanpur-Lucknow Passenger

Feb 20 2014 (11:33AM)
Change Departure Station:
Change Arrival Station:
Post a Train Travel TipPost a Train Travel Tip **new
Post a Comment/Question/Picture/VideoPost a Comment/Question/Picture/Video
Pantry/Catering
✕ NO Pantry Car
✕ NO Catering
RSA - Rake Sharing
54232/54233/54251/54252/54253/54254
Rake/Coach Composition
.
Loco
GZB WAP1
News    PNR    Forum    Time-Table    Availability    Fare Chart    Map    Arr/Dep History    Trips    Gallery    ΣChains    X/O    Timeline    
Travel Time: 10h 29m    38 halts    Distance: 265 km    Avg Speed: 25 km/hr
Type: Passenger
Zone: NR/Northern
Departs @ 08:15 (Avg on time)
Platform# ???
SMTWTFS
Saharanpur Junction/SRE 
Arrives @ 18:44 (Avg 1h 32m late)
Platform# ???
SMTWTFS
Dhaneta/DAN 

38 halts. 44 intermediate Stations between Saharanpur Junction and Dhaneta

Show ALL intermediate Stations  Show Old Time-Table

#CodeStation NameX/OArrivesAvgDepartsAvgHaltPFDay#KmSpeedElevZoneAddress
1SRE»Saharanpur Junction (6)»  -08:15+0--10.050276mNRSaharanpur, Uttar Pradesh
2BAEBaliakheri  08:27+1308:29+162m--110.043274mNRSaharanpur, Uttar Pradesh
3SNKESunehti Kharkhari (2)  08:36-08:38-2m--115.148216mNRSunehti Kharkhr, Uttar Pradesh
4CDLChodialaX  08:45+1608:47+192m--120.749270mNRMDR 163W, Uttar Pradesh
5IQBIqbalpur  08:55+1808:57+212m--127.250267mNRNational Highway 73, Uttar Pradesh
6RKRoorkee (3)O  09:06+1809:08+232m1134.715264mNRRoorkee - 247667, Uttarakhand
7DNRADhandhera (2)X  09:19+2909:21+312m--137.550267mNRRoorkee - 247667, Uttarakhand
8LDRLandaura (2)X  09:27+3309:29+342m--142.550261mNRHaridwar, Uttarakhand
9DSNIDausni (2)X  09:35+3509:37+362m--147.59244mNRLaksar, Uttarakhand
10LRJLaksar Junction (4)X  10:10+1111:15+1365m1152.598238mNRLaksar, Uttarakhand
11RSIRaisi  11:22+2311:24+232m--163.938231mNRLaksar, Uttarakhand
12BLWBalawali (2)  11:33+2411:35+282m--169.652242mNRNational Highway 119, Uttar Pradesh
13CNKChandok (2)  11:43+3011:45+312m--176.592257mNRChandok, Uttar Pradesh
14MZMMuzzampur Narayan (3)  11:53+1:0311:55+1:122m--188.746258mNRJunction Point - NBD/LRJ/BJO, Uttar Pradesh
15FZLFazalpur (2)  12:02+1:0912:04+1:112m--194.131256mNRState Highway 49, Uttar Pradesh
16NBDNajibabad Junction (3)X  12:15+5612:25+1:0010m3199.891269mNRNajibabad, Uttar Pradesh
17MSDRMurshadpurX  12:31+1:1112:33+1:162m--1108.931258mNRNagina, Uttar Pradesh
18BEKBundki  12:40+1:1712:42+1:232m--1112.474255mNRNagina, Uttar Pradesh
19NGGNagina (3)X  12:50+1:2712:55+1:275m--1122.335247mNRNagina, Uttar Pradesh
20PNIPuraini  13:05+1:2313:07+1:232m--1128.148246mNRDhampur, Uttar Pradesh
21HBWHabibwala  13:14+1:2313:16+1:272m--1133.753239mNRNagina, Uttar Pradesh
22DPRDhampurX  13:22+1:0513:27+1:155m--1139.039236mNRDhampur, Uttar Pradesh
23CAJChakraj Mal  13:38+1:1313:40+1:162m--1146.180229mNRNagina, Uttar Pradesh
24SEOSeoharaXO  13:45+1:1913:50+1:235m--1152.834224mNRSeohara, Uttar Pradesh
25MWEMewa NawadaO  14:08+1:1914:10+1:192m--1162.978221mNRSahaspur, Uttar Pradesh
26KNTKanth  14:15+1:2314:20+1:385m--1169.437221mNRKanth, Uttar Pradesh
27MTBMatlabpur  14:34+1:3514:36+1:362m--1178.048216mNRMoradabad, Uttar Pradesh
28AWPAghwanpur  14:48+1:4014:50+1:402m--1187.657212mNRMoradabad, Uttar Pradesh
29HRHHarthalaX  14:56+1:4214:59+1:473m--1193.37206mNRMoradabad, Uttar Pradesh
30MBMoradabad Junction (7)XO15:45+5217:00+4275m--1198.737201mNRMoradabad, Uttar Pradesh
31KGFKathgharX  17:06+5317:07+531m--1202.546199mNRMoradabad, Uttar Pradesh
32DLPDalpatpur  17:18+5517:20+1:002m--1210.955195mNRNH-24, Uttar Pradesh
33MPHMundha Pande  17:27+1:0817:29+1:122m--1217.347191mNRNH 24, Uttar Pradesh
34RMURampur Junction (3)  17:40+1:0217:42+1:112m--1226.035190mNRRampur, Uttar Pradesh
35SARShahzad Nagar  17:53+1:2417:55+1:262m--1232.546186mNRNH 24, Uttar Pradesh
36DAMDhamora  18:02+1:2818:04+1:312m--1237.946183mNRNH 24, Uttar Pradesh
37DUNDuganpur  18:11+1:3118:13+1:312m--1243.339180mNRNH 24, Uttar Pradesh
38MILMilak  18:22+1:2918:24+1:292m--1249.150180mNRMilak, Uttar Pradesh
39NRSNagaria SadatXO  18:34+1:2518:36+1:312m--1257.454177mNRNagaria Sadat, Uttar Pradesh
40DAN•Dhaneta•  18:44+1:3218:46+1:342m--1264.653174mNRNH 24, Uttar Pradesh
41BTOBhitaura  18:53+1:3518:55+1:372m--1270.846173mNRFatehganj Pashchimi, Uttar Pradesh
42PKRAParsa KheraX  19:02+1:3919:04+1:422m--1276.143170mNRNH 24, Uttar Pradesh
43CBJClutterbuckGanjXO  19:11+1:3619:13+1:412m--1281.28172mNRBareilly, Uttar Pradesh
44BEBareilly Junction (4)X  20:10+3320:20+3410m11289.045174mNRBareilly, Uttar Pradesh
45CHTIChanehti Junction  20:25+1:1120:27+1:112m--1292.850168mNRBareilly, Uttar Pradesh
46RYSRasuriyaX  20:35+1:1120:37+1:112m--1299.563174mNRNH 24, Uttar Pradesh
47PMRPitambarpurX  20:46+1:1220:48+1:122m--1308.957171mNRPitambarpur, Uttar Pradesh
48TSATisua  20:57+1:1320:59+1:142m--1317.553165mNRNational Highway 24, Uttar Pradesh
49BLPUBilpurX  21:07+1:1521:09+1:182m--1324.554161mNRFatehganj, Uttar Pradesh
50MKMiranpur Katra  21:17+1:1821:19+1:182m--1331.749162mNRShahjahanpur, Uttar Pradesh
51TLHTilhar  21:31+1:0521:33+1:122m--1341.4-163mNRTilhar, Uttar Pradesh
52BTRABanthraX  21:35+1:3421:37+1:372m--1351.118154mNRNH 24, Uttar Pradesh
53SPNShahjahanpur Junction (3)X  22:05+4722:10+525m--1359.555156mNRShahjahanpur, Uttar Pradesh
54ROZARoza Junction (4)X  22:18+1:3322:20+1:422m--1366.921156mNRShahjahanpur, Uttar Pradesh
55KHKahiliyaX  22:45+1:3822:47+1:452m--1375.457152mNRSH 25, Uttar Pradesh
56AIGAlgawanXO  22:56+1:4522:58+1:462m--1384.054152mNRAlgawan, Uttar Pradesh
57AJIAnjhi Shahabad  23:05+1:3823:07+1:432m--1390.264148mNRAnjhi Shahabad, Uttar Pradesh
58TDPTodarpurX  23:15+1:5323:17+1:532m--1398.755147mNRSH 25, Uttar Pradesh
59BEGBehtagokulX  23:24+1:5323:26+1:582m--1405.259152mNRBehtagokul, Uttar Pradesh
60KUFKaurha  23:35+1:5823:37+2:122m--1414.023148mNRSH 25, Uttar Pradesh
61HRIHardoi (5)  23:59+1:0600:01+1:112m--1422.445146mNRHardoi, Uttar Pradesh
62KARKarnaX  00:14+2:0000:16+2:042m--2432.356143mNRHardoi, Uttar Pradesh
63MSTMasitX  00:24+2:1600:26+2:162m--2439.852141mNRSH 25, Uttar Pradesh
64BGHBaghauliX  00:34+2:1500:36+2:292m--2446.787141mNRsharda nehar, Uttar Pradesh
65BLMBalamu Junction (4)X  00:42+2:1900:47+2:185m--2455.543139mNRBalamau, Uttar Pradesh
66DLQDalelnagarXO  00:59+2:2701:01+2:272m--2464.155136mNRSH 25, Uttar Pradesh
67UTAUmar TaliXO  01:08+2:2301:10+2:282m--2470.545135mNRHardoi, Uttar Pradesh
68SANSandila (3)X  01:17+2:1601:19+2:252m--2475.855132mNRSandila, Uttar Pradesh
69RBDRahimabad  01:31+2:4301:33+2:432m--2486.857132mNRSH 25, Uttar Pradesh
70DILDilawarnagarX  01:41+2:4301:43+2:502m--2494.449133mNRSH 25, Uttar Pradesh
71MLDMalihabadX  01:50+2:4301:52+2:432m--2500.164130mNRMalihabad, Uttar Pradesh
72KKJKakori (3)XO  02:01+2:5802:03+3:162m--2509.75129mNRSH 25, Uttar Pradesh
73AMGAlamnagar (3)O  03:42+2:0603:43+2:201m--2517.319126mNRLucknow, Uttar Pradesh
74LKOLucknow Charbagh (9)  04:05+39-72524.3-123mNR226004, Uttar Pradesh
Scroll to Top
Scroll to Bottom